createdAt,value
2023-04-20T05:46:03.113Z,77.23
2023-04-20T05:48:48.612Z,77.23
2023-04-20T05:51:34.298Z,77.96
2023-04-20T05:54:20.472Z,76.89
2023-04-20T05:57:06.249Z,76.43
2023-04-20T05:59:51.773Z,74.62
2023-04-20T06:02:37.520Z,75.06
2023-04-20T06:05:23.270Z,73.20
2023-04-20T06:08:09.836Z,72.25
2023-04-20T06:10:59.297Z,71.82
2023-04-20T06:13:44.984Z,71.28
2023-04-20T06:16:30.584Z,71.23
2023-04-20T06:19:16.454Z,69.78
2023-04-20T06:22:09.062Z,69.84
2023-04-20T06:24:54.793Z,69.26
2023-04-20T06:27:40.001Z,68.20
2023-04-20T06:30:25.829Z,68.83
2023-04-20T06:33:17.065Z,68.49
2023-04-20T06:36:07.054Z,68.75
2023-04-20T06:38:52.491Z,68.32
2023-04-20T06:41:39.287Z,67.16
2023-04-20T06:44:24.997Z,67.49
2023-04-20T06:47:12.082Z,66.58
2023-04-20T06:50:04.214Z,65.63
2023-04-20T06:52:51.825Z,64.71
2023-04-20T06:55:38.900Z,64.47
2023-04-20T06:58:25.103Z,65.00
2023-04-20T07:01:11.070Z,63.38
2023-04-20T07:03:57.127Z,62.74
2023-04-20T07:06:42.711Z,62.64
2023-04-20T07:09:28.477Z,62.04
2023-04-20T07:12:15.848Z,60.98
2023-04-20T07:15:02.887Z,60.01
2023-04-20T07:17:48.393Z,60.47
2023-04-20T07:20:33.488Z,60.09
2023-04-20T07:23:21.578Z,58.54
2023-04-20T07:26:08.337Z,59.00
2023-04-20T07:28:54.728Z,59.14
2023-04-20T07:31:43.263Z,58.46
2023-04-20T07:34:29.905Z,58.15
2023-04-20T07:37:15.889Z,58.17
2023-04-20T07:40:09.925Z,57.80
2023-04-20T07:42:56.214Z,57.47
2023-04-20T07:45:42.060Z,56.42
2023-04-20T07:48:27.408Z,56.26
2023-04-20T07:51:13.301Z,55.90
2023-04-20T07:53:58.812Z,56.03
2023-04-20T07:56:44.040Z,54.78
2023-04-20T07:59:33.140Z,54.71
2023-04-20T08:02:18.943Z,53.87
2023-04-20T08:05:06.264Z,53.49
2023-04-20T08:07:51.527Z,52.72
2023-04-20T08:10:38.227Z,52.62
2023-04-20T08:13:23.614Z,52.58
2023-04-20T08:16:09.400Z,52.89
2023-04-20T08:18:55.037Z,51.95
2023-04-20T08:21:41.183Z,51.54
2023-04-20T08:24:26.867Z,50.77
2023-04-20T08:27:14.031Z,50.74
2023-04-20T08:29:59.500Z,49.72
2023-04-20T08:32:45.041Z,47.75
2023-04-20T08:35:30.685Z,46.12
2023-04-20T08:38:20.670Z,44.61
2023-04-20T08:41:08.902Z,39.09
2023-04-20T08:43:57.474Z,33.09
2023-04-20T08:46:47.711Z,29.64
2023-04-20T08:49:33.983Z,28.30
2023-04-20T08:52:19.741Z,25.98
2023-04-20T08:55:05.565Z,23.79
2023-04-20T08:57:51.334Z,21.85
2023-04-20T09:00:50.765Z,21.88
2023-04-20T09:03:39.004Z,20.87
2023-04-20T09:06:24.618Z,21.04
2023-04-20T09:09:12.301Z,21.00
2023-04-20T09:12:02.951Z,20.06
2023-04-20T09:14:48.882Z,20.83
2023-04-20T09:17:36.266Z,20.29
2023-04-20T09:20:34.160Z,19.60
2023-04-20T09:23:21.704Z,22.83
2023-04-20T09:26:18.066Z,21.06
2023-04-20T09:29:04.084Z,19.06
2023-04-20T09:31:50.442Z,19.35
2023-04-20T09:34:45.339Z,18.88
2023-04-20T09:37:31.768Z,17.67
2023-04-20T09:40:18.311Z,19.38
2023-04-20T09:43:19.921Z,19.18
2023-04-20T09:46:06.371Z,17.89
2023-04-20T09:48:52.249Z,18.11
2023-04-20T09:51:45.144Z,17.10
2023-04-20T09:54:31.923Z,17.29
2023-04-20T09:57:19.410Z,15.76
2023-04-20T10:00:10.910Z,15.97
2023-04-20T10:02:57.556Z,16.13
2023-04-20T10:05:43.591Z,19.28
2023-04-20T10:08:41.478Z,21.55
2023-04-20T10:11:49.033Z,17.88
2023-04-20T10:14:38.861Z,17.34
2023-04-20T10:17:31.754Z,16.15
2023-04-20T10:20:27.555Z,16.48
2023-04-20T10:23:21.265Z,16.74
2023-04-20T10:26:08.241Z,15.50
2023-04-20T10:28:53.468Z,16.60
2023-04-20T10:31:40.752Z,21.22
2023-04-20T10:34:33.834Z,23.53
2023-04-20T10:37:20.290Z,24.86
2023-04-20T10:40:08.123Z,26.87
2023-04-20T10:42:53.967Z,26.70
2023-04-20T10:45:40.444Z,26.63
2023-04-20T10:48:26.560Z,28.40
2023-04-20T10:51:11.936Z,29.31
2023-04-20T10:54:06.757Z,30.48
2023-04-20T10:56:53.160Z,32.21
2023-04-20T10:59:39.143Z,33.57
2023-04-20T11:02:24.556Z,34.95
2023-04-20T11:05:15.094Z,34.30
2023-04-20T11:08:01.505Z,34.22
2023-04-20T11:10:47.129Z,34.53
2023-04-20T11:13:33.042Z,35.49
2023-04-20T11:16:19.549Z,35.61
2023-04-20T11:19:06.219Z,36.40
2023-04-20T11:21:54.882Z,35.95
2023-04-20T11:24:46.657Z,36.32
2023-04-20T11:27:34.067Z,36.26
2023-04-20T11:30:19.750Z,36.30
